Terminal Aerodrome Forecast
Issued by NWS

Home | Current Version | Previous Version | Graphics & Text | Print | Product List | Glossary On
Versions: 1 2 3 4 5 6 7 8 9 10 11 12 13 14 15 16 17
000
FTUS43 KGRB 171100 RRA
TAFATW
TAF
KATW 171142Z 1712/1812 13015G23KT P6SM SCT015 OVC060 WS015/17040KT
      TEMPO 1712/1714 3SM -RASN BR BKN012
     FM171400 20011G18KT P6SM SCT015 OVC035
      TEMPO 1714/1718 BKN015
     FM171800 26011G19KT P6SM BKN020
     FM172200 29009KT P6SM BKN035
     FM180400 31006KT P6SM SCT035=

USA.gov is the U.S. government's official web portal to all federal, state and local government web resources and services.